Chalgrove, United Kingdom
Current Conditions -  °F | °C
As of 10:50 AM on Wednesday 22 Oct 2014 (Local Time) from EGUB Reporting Station
Clear Clear  
Wind Chill: 52°   Ceiling: Unl
Heat Index: 52°   Visibility: 6mi
Dew Point: 41°   Wind: 12mph
Humidity: 67%   Direction: 240°WSW
Pressure: 30.3"   Gusts: NA
Location:  51.66°N, 1.08°W
Report Text: EGUB 220950Z 24010KT CAVOK 11/05 Q1026 BLU NOSIG
Loading
Personal Weather Stations






























Interactive Weather Map New forecast layout! Learn more

10-Day Weather Forecast

Advertisements
Track Severe Weather on mobile